Terminal Aerodrome Forecast
Issued by NWS

Home | Current Version | Previous Version | Text Only | Print | Product List | Glossary On
Versions: 1 2 3 4 5 6 7 8 9 10 11 12 13 14 15 16 17 18 19 20 21 22 23 24 25 26 27 28 29 30 31 32 33 34 35 36 37 38 39 40 41 42
000
FTUS45 KBOU 260536
TAFBJC
TAF
KBJC 260536Z 2606/2706 36009KT P6SM VCSH SCT050 BKN090
      TEMPO 2607/2609 5SM -SHRA OVC030
     FM260900 VRB06KT P6SM VCSH SCT010 OVC020
      TEMPO 2609/2612 3SM BR SCT006 BKN010
     FM261200 12010KT 3SM -SHRA BR SCT005 OVC008
      TEMPO 2612/2616 1SM -SHRA BR OVC005
     FM261800 09012KT 3SM -SHRA BR SCT008 OVC012
     FM270100 07010KT 2SM -SHRA BR SCT005 OVC008=

USA.gov is the U.S. government's official web portal to all federal, state and local government web resources and services.